Time;durP1;ratioP1;P1;durP2;ratioP2;P2;SDS_P1;SDS_P2;PMS_P1;PMS_P2;Temp;Humidity;BMP_temperature;BMP_pressure;BME280_temperature;BME280_humidity;BME280_pressure;Samples;Min_cycle;Max_cycle;Signal;HPM_P1;HPM_P2
2022/09/17 00:01:05;;;;;;;4.40;2.60;;;;;;;12.73;75.83;97861.17;104967;1271;73637;-25
2022/09/17 00:03:33;;;;;;;10.20;2.90;;;;;;;12.55;76.09;97860.17;104874;1271;76006;-25
2022/09/17 00:06:07;;;;;;;5.90;3.00;;;;;;;12.31;76.39;97861.70;104821;1271;74156;-25
2022/09/17 00:08:35;;;;;;;8.20;3.10;;;;;;;12.07;77.08;97856.35;105004;1271;62172;-25
2022/09/17 00:11:11;;;;;;;4.50;2.20;;;;;;;11.87;78.06;97855.27;104748;1271;61093;-25
2022/09/17 00:13:40;;;;;;;4.50;1.90;;;;;;;12.32;77.77;97855.28;104918;1271;75352;-25
2022/09/17 00:16:06;;;;;;;7.40;2.60;;;;;;;12.82;75.94;97853.20;104810;1271;75811;-26
2022/09/17 00:18:35;;;;;;;6.70;2.20;;;;;;;12.87;75.41;97845.73;104940;1271;74165;-25
2022/09/17 00:21:03;;;;;;;2.90;2.30;;;;;;;12.66;75.78;97852.34;104969;1271;61928;-25
2022/09/17 00:23:31;;;;;;;4.80;2.70;;;;;;;12.41;76.14;97856.81;105024;1271;61064;-25
2022/09/17 00:25:58;;;;;;;4.50;3.00;;;;;;;12.12;76.99;97852.21;104926;1271;75631;-25
2022/09/17 00:28:25;;;;;;;9.50;2.70;;;;;;;11.89;78.32;97855.98;104981;1271;75853;-25
2022/09/17 00:30:52;;;;;;;3.40;1.90;;;;;;;12.27;78.16;97853.55;104915;1268;74402;-25
2022/09/17 00:33:19;;;;;;;4.20;2.20;;;;;;;12.82;76.40;97850.13;104955;1271;61143;-25
2022/09/17 00:35:57;;;;;;;5.50;2.50;;;;;;;12.85;75.67;97850.30;104952;1271;61000;-25
2022/09/17 00:38:24;;;;;;;4.40;2.60;;;;;;;12.59;75.90;97850.60;104807;1269;75502;-24
2022/09/17 00:40:51;;;;;;;5.30;2.50;;;;;;;12.35;76.64;97846.77;105276;1271;76012;-25
2022/09/17 00:43:37;;;;;;;5.40;3.00;;;;;;;12.14;77.23;97843.15;105323;1271;74287;-26
2022/09/17 00:46:09;;;;;;;4.20;1.70;;;;;;;12.00;77.52;97840.41;105143;1271;63694;-25
2022/09/17 00:48:36;;;;;;;5.10;1.90;;;;;;;12.57;77.15;97839.57;105035;1271;62318;-25
2022/09/17 00:51:03;;;;;;;3.60;2.10;;;;;;;13.14;75.28;97842.06;105111;1270;75531;-25
2022/09/17 00:53:30;;;;;;;3.00;1.90;;;;;;;13.21;74.39;97856.61;105023;1271;76087;-25
2022/09/17 00:56:04;;;;;;;8.00;2.30;;;;;;;13.05;74.51;97860.83;104889;1271;74303;-26
2022/09/17 00:58:31;;;;;;;3.10;2.30;;;;;;;12.77;74.87;97860.29;104950;1270;61594;-25
2022/09/17 01:00:58;;;;;;;4.80;2.50;;;;;;;12.44;76.08;97855.60;104783;1271;61132;-25
2022/09/17 01:03:26;;;;;;;4.70;2.50;;;;;;;12.23;76.47;97853.86;104946;1271;75353;-25
2022/09/17 01:06:23;;;;;;;2.00;1.60;;;;;;;12.07;77.17;97855.58;105099;1271;75972;-25
2022/09/17 01:09:05;;;;;;;4.20;1.90;;;;;;;12.63;76.14;97860.90;104838;1271;73269;-25
2022/09/17 01:11:49;;;;;;;2.50;1.90;;;;;;;13.03;74.32;97859.52;104917;1271;61150;-25
2022/09/17 01:14:36;;;;;;;;;;;;;;;13.00;73.78;97859.64;105122;1271;61919;-25
2022/09/17 01:17:19;;;;;;;2.50;1.60;;;;;;;12.79;73.78;97865.00;105255;1271;75537;-25
2022/09/17 01:20:24;;;;;;;2.30;1.60;;;;;;;12.56;74.62;97870.29;105042;1271;75878;-25
2022/09/17 01:23:01;;;;;;;4.90;1.70;;;;;;;12.35;75.13;97874.98;105061;1271;74348;-25
2022/09/17 01:25:41;;;;;;;2.30;1.20;;;;;;;12.27;75.50;97873.30;104894;1271;62543;-25
2022/09/17 01:28:28;;;;;;;4.60;1.50;;;;;;;12.79;74.70;97871.49;104815;1271;62059;-25
2022/09/17 01:31:03;;;;;;;2.70;1.50;;;;;;;13.19;73.07;97870.11;105088;1271;74382;-25
2022/09/17 01:33:49;;;;;;;2.30;1.50;;;;;;;13.17;72.74;97867.38;104941;1271;75975;-25
2022/09/17 01:36:21;;;;;;;2.70;1.30;;;;;;;12.99;72.71;97866.17;104872;1271;74463;-25
2022/09/17 01:39:10;;;;;;;2.60;1.80;;;;;;;12.79;73.13;97860.98;104950;1271;61150;-25
2022/09/17 01:41:46;;;;;;;2.20;1.60;;;;;;;12.55;74.01;97862.20;104747;1271;61964;-25
2022/09/17 01:44:44;;;;;;;3.70;1.40;;;;;;;12.42;74.54;97853.05;104757;1271;75389;-25
2022/09/17 01:47:15;;;;;;;3.10;1.40;;;;;;;12.91;73.76;97858.52;104798;1271;76014;-25
2022/09/17 01:49:49;;;;;;;2.70;1.70;;;;;;;13.20;73.11;97865.79;104871;1271;74663;-24
2022/09/17 01:52:16;;;;;;;3.60;1.90;;;;;;;13.21;73.70;97868.80;104847;1271;61153;-25
2022/09/17 01:54:48;;;;;;;4.70;2.00;;;;;;;13.04;74.16;97872.91;104859;1272;61150;-25
2022/09/17 01:57:27;;;;;;;2.30;2.10;;;;;;;12.81;74.96;97874.63;104903;1271;75665;-25
2022/09/17 01:59:55;;;;;;;3.60;2.50;;;;;;;12.55;75.50;97874.96;104957;1271;76164;-24
2022/09/17 02:02:37;;;;;;;4.70;1.30;;;;;;;12.37;76.56;97873.79;104843;1271;74511;-26
2022/09/17 02:05:20;;;;;;;1.50;1.20;;;;;;;12.79;76.32;97878.81;104953;1271;61240;-25
2022/09/17 02:07:51;;;;;;;1.90;1.70;;;;;;;13.19;74.76;97877.92;104890;1271;61040;-24
2022/09/17 02:10:25;;;;;;;2.20;1.60;;;;;;;13.08;74.82;97876.73;104778;1271;73527;-25
2022/09/17 02:12:59;;;;;;;4.40;2.40;;;;;;;12.82;75.33;97870.25;104850;1272;76017;-25
2022/09/17 02:15:31;;;;;;;3.80;2.30;;;;;;;12.52;76.30;97873.38;104850;1271;74372;-25
2022/09/17 02:18:06;;;;;;;2.70;2.10;;;;;;;12.32;77.20;97872.19;104937;1271;61136;-25
2022/09/17 02:20:39;;;;;;;2.80;1.40;;;;;;;12.12;78.36;97870.84;104746;1271;61331;-25
2022/09/17 02:23:10;;;;;;;1.80;1.60;;;;;;;12.55;77.43;97881.55;105002;1271;74273;-24
2022/09/17 02:25:43;;;;;;;3.50;2.40;;;;;;;12.93;76.08;97879.52;104988;1271;76017;-24
2022/09/17 02:28:15;;;;;;;4.40;2.10;;;;;;;12.97;75.73;97877.05;104871;1271;74431;-25
2022/09/17 02:30:42;;;;;;;4.70;2.10;;;;;;;12.82;75.84;97876.42;104838;1271;62001;-24
2022/09/17 02:33:11;;;;;;;8.10;2.60;;;;;;;12.62;76.32;97878.92;104958;1271;61128;-25
2022/09/17 02:35:38;;;;;;;3.60;2.00;;;;;;;12.37;77.25;97874.39;104839;1271;74528;-25
2022/09/17 02:38:05;;;;;;;4.90;1.70;;;;;;;12.17;77.87;97869.39;104953;1271;76425;-25
2022/09/17 02:40:35;;;;;;;4.00;1.60;;;;;;;12.57;77.92;97865.52;105002;1271;74276;-25
2022/09/17 02:43:08;;;;;;;2.00;1.70;;;;;;;13.05;76.22;97866.70;105141;1271;61070;-25
2022/09/17 02:46:06;;;;;;;2.50;1.70;;;;;;;13.05;76.03;97856.62;104923;1271;61112;-25
2022/09/17 02:48:48;;;;;;;4.30;1.80;;;;;;;12.85;76.05;97857.56;104908;1271;75601;-25
2022/09/17 02:51:21;;;;;;;3.30;2.10;;;;;;;12.57;76.50;97862.85;104834;1271;74864;-25
2022/09/17 02:54:11;;;;;;;2.70;1.30;;;;;;;12.31;77.73;97868.93;104756;1271;74391;-25
2022/09/17 02:56:58;;;;;;;4.50;1.80;;;;;;;12.70;77.74;97868.86;104878;1271;61554;-25
2022/09/17 02:59:28;;;;;;;5.40;2.50;;;;;;;13.02;76.71;97864.01;104783;1271;61085;-25
2022/09/17 03:02:17;;;;;;;3.70;2.00;;;;;;;12.81;76.84;97872.02;104946;1271;75511;-24
2022/09/17 03:04:45;;;;;;;4.30;2.00;;;;;;;12.31;78.85;97881.30;104783;1271;75964;-25
2022/09/17 03:07:16;;;;;;;3.30;2.10;;;;;;;12.00;80.33;97876.59;104957;1271;74016;-23
2022/09/17 03:09:42;;;;;;;3.00;1.90;;;;;;;11.83;80.93;97869.70;105173;1274;62679;-23
2022/09/17 03:12:10;;;;;;;2.90;2.00;;;;;;;12.14;80.45;97872.56;105166;1271;61139;-24
2022/09/17 03:14:37;;;;;;;2.90;2.00;;;;;;;12.26;79.64;97875.11;105273;1272;75540;-25
2022/09/17 03:17:04;;;;;;;2.80;2.30;;;;;;;12.23;79.49;97871.75;105001;1271;76070;-25
2022/09/17 03:19:32;;;;;;;3.10;1.90;;;;;;;12.02;80.38;97867.50;104938;1271;74209;-25
2022/09/17 03:21:59;;;;;;;3.00;1.70;;;;;;;11.78;81.44;97867.22;104927;1271;61043;-25
2022/09/17 03:24:26;;;;;;;2.20;1.60;;;;;;;11.82;82.00;97865.48;104979;1271;61137;-25
2022/09/17 03:26:53;;;;;;;1.90;1.70;;;;;;;12.21;80.29;97862.55;104953;1270;75326;-25
2022/09/17 03:29:20;;;;;;;2.70;1.90;;;;;;;12.27;79.95;97866.83;104961;1271;75906;-25
2022/09/17 03:31:47;;;;;;;3.90;2.10;;;;;;;12.14;80.34;97866.48;104973;1271;74296;-25
2022/09/17 03:34:14;;;;;;;2.50;1.90;;;;;;;11.93;80.92;97864.81;104933;1271;61656;-25
2022/09/17 03:36:42;;;;;;;1.80;1.20;;;;;;;11.73;82.08;97868.09;104942;1271;61158;-25
2022/09/17 03:39:09;;;;;;;2.30;1.80;;;;;;;12.05;80.97;97867.19;104870;1271;75514;-25
2022/09/17 03:41:37;;;;;;;2.50;1.90;;;;;;;12.30;80.07;97869.10;104863;1271;75830;-25
2022/09/17 03:44:04;;;;;;;2.10;1.70;;;;;;;12.25;80.01;97867.05;104999;1271;74372;-25
2022/09/17 03:46:31;;;;;;;3.40;2.30;;;;;;;12.03;80.58;97868.96;104933;1271;61105;-27
2022/09/17 03:48:58;;;;;;;1.70;1.40;;;;;;;11.88;81.54;97866.51;103717;1271;1616633;-25
2022/09/17 03:51:25;;;;;;;2.90;1.60;;;;;;;12.18;81.09;97868.22;104978;1270;74286;-25
2022/09/17 03:53:52;;;;;;;2.20;2.00;;;;;;;12.51;79.36;97868.05;105003;1271;75836;-25
2022/09/17 03:56:19;;;;;;;3.20;2.20;;;;;;;12.48;79.42;97867.14;105196;1271;74334;-24
2022/09/17 03:58:46;;;;;;;6.00;2.40;;;;;;;12.30;79.80;97864.17;104993;1271;61153;-25
2022/09/17 04:01:12;;;;;;;4.70;2.40;;;;;;;12.16;80.51;97865.48;104930;1269;61152;-25
2022/09/17 04:03:40;;;;;;;2.00;1.80;;;;;;;12.00;81.00;97863.52;104948;1271;75876;-25
2022/09/17 04:06:07;;;;;;;5.50;1.90;;;;;;;12.42;80.35;97860.17;104977;1271;76181;-24
2022/09/17 04:08:35;;;;;;;3.40;2.00;;;;;;;12.76;78.47;97858.03;104930;1271;75863;-25
2022/09/17 04:11:02;;;;;;;2.70;1.90;;;;;;;12.82;78.23;97861.23;104954;1271;61919;-24
2022/09/17 04:13:29;;;;;;;3.20;1.90;;;;;;;12.67;78.37;97869.80;104946;1271;61806;-25
2022/09/17 04:15:57;;;;;;;5.30;2.30;;;;;;;12.45;79.08;97879.11;104954;1271;75465;-25
2022/09/17 04:18:24;;;;;;;2.00;1.50;;;;;;;12.26;79.26;97882.19;104932;1270;75841;-25
2022/09/17 04:20:52;;;;;;;3.50;1.90;;;;;;;12.49;79.44;97876.96;104962;1271;74524;-25
2022/09/17 04:23:19;;;;;;;2.60;2.30;;;;;;;12.81;78.40;97879.30;104974;1271;61116;-22
2022/09/17 04:25:46;;;;;;;3.30;2.40;;;;;;;12.74;78.46;97883.13;104988;1271;61054;-23
2022/09/17 04:28:13;;;;;;;3.00;2.40;;;;;;;12.54;78.79;97885.02;104970;1272;75556;-24
2022/09/17 04:30:42;;;;;;;4.20;2.60;;;;;;;12.30;79.92;97883.41;105346;1271;75968;-24
2022/09/17 04:33:09;;;;;;;2.90;1.60;;;;;;;12.10;80.95;97877.80;104949;1271;74419;-23
2022/09/17 04:35:36;;;;;;;2.70;1.70;;;;;;;12.48;80.02;97876.40;105376;1271;62659;-24
2022/09/17 04:38:03;;;;;;;3.70;2.00;;;;;;;12.86;78.38;97870.34;105441;1271;61126;-24
2022/09/17 04:40:31;;;;;;;2.00;1.70;;;;;;;12.86;77.97;97864.58;105082;1271;75410;-23
2022/09/17 04:42:58;;;;;;;4.40;2.60;;;;;;;12.61;78.87;97857.42;105316;1271;75822;-24
2022/09/17 04:45:26;;;;;;;6.90;4.60;;;;;;;12.38;79.79;97858.34;105297;1271;75100;-24
2022/09/17 04:47:53;;;;;;;4.40;2.10;;;;;;;12.19;80.37;97862.65;105365;1271;63482;-23
2022/09/17 04:50:20;;;;;;;4.50;1.90;;;;;;;12.55;79.82;97860.86;105379;1271;61711;-23
2022/09/17 04:52:48;;;;;;;3.40;2.40;;;;;;;12.79;78.74;97856.40;104987;1271;75854;-24
2022/09/17 04:55:15;;;;;;;3.60;2.40;;;;;;;12.71;78.79;97861.70;104945;1271;75969;-23
2022/09/17 04:57:47;;;;;;;4.90;3.40;;;;;;;12.48;79.75;97867.75;104925;1271;74296;-24
2022/09/17 05:00:14;;;;;;;4.00;2.80;;;;;;;12.25;80.79;97869.92;104769;1271;62026;-24
2022/09/17 05:02:44;;;;;;;2.50;1.70;;;;;;;12.19;80.69;97876.73;104781;1274;61212;-23
2022/09/17 05:05:11;;;;;;;3.60;1.90;;;;;;;12.47;80.21;97874.45;104877;1271;74377;-23
2022/09/17 05:07:38;;;;;;;11.50;10.40;;;;;;;12.77;79.29;97867.04;104895;1271;74970;-23
2022/09/17 05:10:06;;;;;;;6.00;4.10;;;;;;;12.69;79.25;97874.14;104795;1274;74701;-24
2022/09/17 05:12:35;;;;;;;2.90;2.60;;;;;;;12.52;79.86;97870.76;104887;1271;62226;-23
2022/09/17 05:15:03;;;;;;;3.10;1.80;;;;;;;12.40;79.77;97861.70;104984;1271;61225;-24
2022/09/17 05:17:31;;;;;;;3.20;2.50;;;;;;;12.35;80.65;97864.91;104987;1271;75361;-23
2022/09/17 05:19:59;;;;;;;7.80;6.60;;;;;;;12.84;79.71;97867.50;105024;1271;75898;-23
2022/09/17 05:22:25;;;;;;;7.80;5.10;;;;;;;12.98;78.51;97872.94;104871;1271;74316;-24
2022/09/17 05:24:53;;;;;;;5.70;3.50;;;;;;;12.75;79.39;97879.55;104907;1271;60949;-24
2022/09/17 05:27:20;;;;;;;5.70;5.10;;;;;;;12.52;80.04;97880.27;104990;1271;61108;-23
2022/09/17 05:29:47;;;;;;;2.90;2.50;;;;;;;12.36;80.98;97880.30;104997;1271;75971;-24
2022/09/17 05:32:14;;;;;;;3.40;2.30;;;;;;;12.57;80.30;97885.20;104937;1270;75803;-24
2022/09/17 05:34:41;;;;;;;4.50;1.90;;;;;;;12.89;78.45;97893.21;104923;1271;74454;-23
2022/09/17 05:37:11;;;;;;;3.90;2.20;;;;;;;12.93;78.11;97895.27;104965;1271;61141;-24
2022/09/17 05:39:38;;;;;;;5.00;2.40;;;;;;;12.75;78.29;97895.25;104886;1274;62067;-24
2022/09/17 05:42:06;;;;;;;2.90;2.00;;;;;;;12.62;78.56;97889.30;104979;1271;75519;-24
2022/09/17 05:44:33;;;;;;;1.70;1.30;;;;;;;12.58;78.77;97882.95;104968;1269;76099;-23
2022/09/17 05:47:01;;;;;;;1.60;1.20;;;;;;;13.00;78.20;97884.52;104988;1271;74372;-23
2022/09/17 05:49:28;;;;;;;1.60;1.50;;;;;;;13.54;76.82;97887.89;104964;1271;61396;-24
2022/09/17 05:51:55;;;;;;;3.70;1.70;;;;;;;13.61;76.28;97884.13;104905;1271;60977;-24
2022/09/17 05:54:22;;;;;;;2.10;1.80;;;;;;;13.40;76.24;97883.08;104983;1269;74479;-24
2022/09/17 05:56:52;;;;;;;2.60;2.00;;;;;;;13.15;76.91;97880.84;105009;1271;76010;-25
2022/09/17 05:59:20;;;;;;;3.00;2.10;;;;;;;12.97;77.60;97883.36;104844;1271;74203;-24
2022/09/17 06:01:47;;;;;;;1.90;1.50;;;;;;;12.84;78.33;97885.29;104968;1272;61317;-24
2022/09/17 06:04:14;;;;;;;2.10;1.40;;;;;;;13.29;78.54;97889.17;104955;1271;61167;-25
2022/09/17 06:06:41;;;;;;;1.50;1.40;;;;;;;13.81;76.84;97892.53;105180;1270;75176;-25
2022/09/17 06:09:09;;;;;;;1.80;1.60;;;;;;;13.87;76.12;97894.89;105244;1270;75053;-25
2022/09/17 06:11:37;;;;;;;3.00;1.70;;;;;;;13.74;75.96;97896.46;104864;1271;74451;-24
2022/09/17 06:14:04;;;;;;;6.60;2.10;;;;;;;13.54;76.52;97882.70;104932;1272;61207;-24
2022/09/17 06:16:31;;;;;;;2.50;2.20;;;;;;;13.29;77.21;97873.58;105417;1271;61034;-24
2022/09/17 06:18:58;;;;;;;3.90;2.70;;;;;;;13.09;77.75;97869.03;105018;1271;75344;-24
2022/09/17 06:21:26;;;;;;;3.10;2.80;;;;;;;13.47;78.14;97871.83;104948;1271;75776;-25
2022/09/17 06:23:54;;;;;;;6.00;3.10;;;;;;;14.06;76.67;97881.48;105126;1271;74368;-24
2022/09/17 06:26:21;;;;;;;6.10;2.60;;;;;;;14.22;76.03;97886.98;104997;1270;61137;-24
2022/09/17 06:28:48;;;;;;;2.40;2.00;;;;;;;14.19;75.50;97882.09;104991;1271;61014;-24
2022/09/17 06:31:16;;;;;;;2.90;2.10;;;;;;;14.10;75.69;97871.61;104917;1271;74360;-25
2022/09/17 06:33:43;;;;;;;5.30;2.60;;;;;;;14.00;75.60;97867.30;104946;1269;75100;-24
2022/09/17 06:36:11;;;;;;;3.00;2.00;;;;;;;13.95;75.37;97868.94;104931;1271;74799;-24
2022/09/17 06:38:41;;;;;;;3.10;1.70;;;;;;;14.46;75.11;97866.81;104734;1271;62004;-24
2022/09/17 06:41:08;;;;;;;3.20;1.60;;;;;;;14.94;72.06;97870.21;104894;1271;61781;-24
2022/09/17 06:43:35;;;;;;;5.40;2.00;;;;;;;15.03;72.47;97865.95;104999;1271;75506;-25
2022/09/17 06:46:07;;;;;;;1.70;1.60;;;;;;;14.94;71.87;97854.41;104942;1271;75967;-25
2022/09/17 06:48:35;;;;;;;3.20;1.70;;;;;;;14.88;72.32;97850.21;104952;1271;73265;-25
2022/09/17 06:51:04;;;;;;;3.20;2.00;;;;;;;14.74;71.63;97857.31;104963;1271;61148;-25
2022/09/17 06:53:32;;;;;;;1.90;1.70;;;;;;;14.54;73.37;97864.33;104951;1271;61798;-24
2022/09/17 06:55:59;;;;;;;3.00;2.00;;;;;;;14.49;72.98;97853.54;105096;1271;75634;-24
2022/09/17 06:58:35;;;;;;;2.00;1.80;;;;;;;14.56;74.12;97847.90;105055;1269;75926;-24
2022/09/17 07:01:03;;;;;;;1.70;1.30;;;;;;;15.26;73.25;97843.46;104931;1271;75451;-25
2022/09/17 07:03:31;;;;;;;1.90;1.70;;;;;;;16.01;70.97;97845.02;104813;1271;61021;-24
2022/09/17 07:05:58;;;;;;;1.70;1.40;;;;;;;16.22;69.59;97849.79;104958;1271;61221;-24
2022/09/17 07:08:25;;;;;;;2.00;1.30;;;;;;;16.20;68.90;97850.35;104935;1271;75482;-24
2022/09/17 07:10:56;;;;;;;7.10;2.30;;;;;;;16.11;66.72;97849.46;104973;1271;76051;-25
2022/09/17 07:13:23;;;;;;;4.30;1.90;;;;;;;15.94;68.85;97852.64;105043;1271;74821;-25
2022/09/17 07:15:53;;;;;;;2.70;1.50;;;;;;;15.77;69.15;97854.69;104804;1271;61138;-25
2022/09/17 07:18:20;;;;;;;2.50;1.70;;;;;;;15.53;68.46;97861.20;104811;1271;61096;-25
2022/09/17 07:20:55;;;;;;;2.20;1.60;;;;;;;15.21;68.35;97861.04;104992;1271;75655;-25
2022/09/17 07:23:26;;;;;;;2.10;1.70;;;;;;;15.01;69.04;97859.89;105023;1271;75971;-24
2022/09/17 07:25:54;;;;;;;3.90;1.80;;;;;;;14.95;69.32;97863.21;105003;1268;74380;-24
2022/09/17 07:28:21;;;;;;;1.70;0.80;;;;;;;14.94;70.27;97866.70;104847;1270;63622;-24
2022/09/17 07:30:50;;;;;;;1.70;0.90;;;;;;;15.45;69.98;97868.13;105011;1271;62054;-24
2022/09/17 07:33:22;;;;;;;1.50;1.00;;;;;;;15.95;68.14;97864.84;105186;1271;74563;-24
2022/09/17 07:35:59;;;;;;;2.40;1.40;;;;;;;15.96;67.77;97864.34;105071;1271;75959;-25
2022/09/17 07:38:27;;;;;;;4.90;1.40;;;;;;;15.86;67.90;97867.99;104720;1271;74172;-25
2022/09/17 07:40:55;;;;;;;2.50;1.50;;;;;;;15.71;68.23;97869.56;104790;1271;61785;-25
2022/09/17 07:43:23;;;;;;;2.70;1.30;;;;;;;15.59;68.16;97871.54;104896;1271;60966;-25
2022/09/17 07:45:49;;;;;;;2.30;1.50;;;;;;;15.47;67.90;97875.09;104916;1271;74045;-25
2022/09/17 07:48:17;;;;;;;1.80;1.30;;;;;;;15.26;68.16;97878.09;104932;1271;75856;-24
2022/09/17 07:50:43;;;;;;;2.20;1.40;;;;;;;15.07;69.10;97878.39;104991;1271;74365;-24
2022/09/17 07:53:11;;;;;;;2.70;1.60;;;;;;;14.92;68.75;97884.95;104965;1270;61036;-24
2022/09/17 07:55:39;;;;;;;2.70;1.50;;;;;;;14.79;69.67;97882.02;104989;1271;61140;-24
2022/09/17 07:58:06;;;;;;;2.50;1.50;;;;;;;14.69;70.29;97874.09;105388;1271;75513;-23
2022/09/17 08:00:33;;;;;;;1.70;1.20;;;;;;;15.14;68.97;97871.09;104992;1271;74918;-23
2022/09/17 08:03:00;;;;;;;3.20;1.40;;;;;;;15.68;67.81;97867.88;105134;1271;74595;-24
2022/09/17 08:05:27;;;;;;;1.70;1.40;;;;;;;15.80;67.50;97874.27;105149;1271;61125;-24
2022/09/17 08:07:54;;;;;;;2.60;1.50;;;;;;;15.73;68.86;97877.73;105094;1271;61100;-23
2022/09/17 08:10:22;;;;;;;4.20;1.70;;;;;;;15.64;68.33;97876.77;105009;1270;75493;-23
2022/09/17 08:12:54;;;;;;;1.70;1.50;;;;;;;15.47;68.67;97889.10;105015;1271;75733;-24
2022/09/17 08:15:21;;;;;;;1.30;1.10;;;;;;;15.17;69.20;97901.90;104853;1269;73569;-24
2022/09/17 08:17:49;;;;;;;1.90;1.60;;;;;;;14.91;70.45;97901.92;105310;1271;61040;-25
2022/09/17 08:20:17;;;;;;;1.50;1.10;;;;;;;14.70;71.06;97905.67;105271;1271;61127;-25
2022/09/17 08:22:46;;;;;;;1.60;0.90;;;;;;;14.62;72.19;97911.39;105218;1270;76324;-24
2022/09/17 08:25:17;;;;;;;1.70;1.10;;;;;;;15.22;71.34;97901.88;104907;1271;75889;-25
2022/09/17 08:27:44;;;;;;;2.20;1.20;;;;;;;15.74;68.71;97891.30;104938;1271;74436;-25
2022/09/17 08:30:11;;;;;;;3.10;1.80;;;;;;;15.78;67.47;97889.05;104930;1271;62077;-25
2022/09/17 08:32:38;;;;;;;2.00;1.50;;;;;;;15.72;69.59;97884.18;104922;1271;61169;-25
2022/09/17 08:35:06;;;;;;;6.20;2.60;;;;;;;15.62;69.73;97883.61;104887;1271;75518;-25
2022/09/17 08:37:33;;;;;;;1.50;1.10;;;;;;;15.47;70.16;97884.58;104992;1271;74813;-25
2022/09/17 08:40:01;;;;;;;1.40;1.20;;;;;;;15.24;69.89;97890.27;104961;1271;74303;-25
2022/09/17 08:42:40;;;;;;;2.90;1.80;;;;;;;15.01;69.84;97894.56;105063;1271;61344;-25
2022/09/17 08:45:10;;;;;;;1.60;1.00;;;;;;;14.88;70.73;97893.44;104897;1271;61105;-25
2022/09/17 08:47:38;;;;;;;1.60;1.10;;;;;;;15.32;69.06;97884.77;104982;1271;75580;-25
2022/09/17 08:50:16;;;;;;;4.40;1.90;;;;;;;15.79;68.17;97880.48;104948;1270;76053;-25
2022/09/17 08:53:03;;;;;;;5.70;4.80;;;;;;;15.91;67.78;97880.67;104927;1270;73557;-24
2022/09/17 08:55:39;;;;;;;2.30;1.60;;;;;;;15.76;68.32;97880.72;105394;1271;61159;-24
2022/09/17 08:58:44;;;;;;;2.50;1.70;;;;;;;15.63;68.68;97884.70;105172;1271;62071;-25
2022/09/17 09:01:23;;;;;;;4.50;1.90;;;;;;;15.42;68.90;97891.59;105027;1271;75514;-25
2022/09/17 09:04:10;;;;;;;1.90;1.70;;;;;;;15.22;69.12;97889.79;104924;1271;76425;-25
2022/09/17 09:06:54;;;;;;;3.70;2.10;;;;;;;14.98;68.63;97881.95;105264;1271;74310;-24
2022/09/17 09:09:22;;;;;;;3.90;1.90;;;;;;;14.93;69.87;97881.45;105108;1271;62761;-25
2022/09/17 09:11:56;;;;;;;3.00;2.60;;;;;;;15.51;69.23;97879.89;105173;1271;61175;-25
2022/09/17 09:14:24;;;;;;;7.60;6.00;;;;;;;16.16;67.94;97876.45;105183;1271;75580;-25
2022/09/17 09:16:51;;;;;;;4.00;3.20;;;;;;;16.38;67.46;97878.30;105181;1269;76007;-25
2022/09/17 09:19:23;;;;;;;3.80;2.10;;;;;;;16.51;66.86;97870.52;105372;1271;75982;-25
2022/09/17 09:22:02;;;;;;;7.70;2.80;;;;;;;16.51;64.90;97873.70;104853;1271;61141;-25
2022/09/17 09:24:32;;;;;;;5.70;5.20;;;;;;;16.32;64.80;97876.58;104846;1271;61931;-25
2022/09/17 09:27:02;;;;;;;2.60;2.30;;;;;;;16.15;64.30;97876.04;104817;1271;75524;-24
2022/09/17 09:30:00;;;;;;;2.30;1.80;;;;;;;16.16;64.92;97873.26;104897;1271;76796;-24
2022/09/17 09:32:59;;;;;;;2.90;1.50;;;;;;;16.24;65.51;97873.16;104865;1271;74379;-25
2022/09/17 09:35:35;;;;;;;3.30;1.90;;;;;;;16.33;65.66;97877.84;104838;1271;61127;-25
2022/09/17 09:38:34;;;;;;;5.10;1.70;;;;;;;16.48;66.98;97877.05;104963;1271;61236;-25
2022/09/17 09:41:16;;;;;;;2.20;1.70;;;;;;;16.61;65.35;97874.51;105002;1271;75521;-24
2022/09/17 09:43:49;;;;;;;2.30;1.50;;;;;;;16.67;64.16;97872.07;104951;1271;75991;-24
2022/09/17 09:46:56;;;;;;;2.40;1.60;;;;;;;16.71;65.25;97874.52;105047;1271;74292;-24
2022/09/17 09:49:40;;;;;;;2.30;1.70;;;;;;;16.84;63.63;97876.58;104844;1271;61110;-24
2022/09/17 09:52:41;;;;;;;2.20;1.30;;;;;;;17.08;64.53;97877.52;104846;1271;62081;-24
2022/09/17 09:55:30;;;;;;;2.50;1.30;;;;;;;17.08;62.65;97879.77;104873;1271;75729;-24
2022/09/17 09:58:23;;;;;;;2.40;1.50;;;;;;;17.02;61.77;97880.53;104927;1271;75824;-24
2022/09/17 10:00:50;;;;;;;2.80;1.70;;;;;;;17.09;62.81;97868.90;104852;1271;74027;-24
2022/09/17 10:03:31;;;;;;;5.60;2.80;;;;;;;17.15;62.54;97865.26;104877;1269;61971;-25
2022/09/17 10:06:03;;;;;;;4.00;2.10;;;;;;;17.27;62.22;97861.37;104840;1271;61050;-24
2022/09/17 10:08:32;;;;;;;7.90;4.70;;;;;;;17.23;62.71;97863.91;104791;1271;75252;-22
2022/09/17 10:11:04;;;;;;;5.70;3.40;;;;;;;17.15;62.77;97864.49;104834;1271;74786;-24
2022/09/17 10:13:34;;;;;;;;;;;;;;;17.22;62.93;97857.15;104766;1271;74366;-24
2022/09/17 10:16:20;;;;;;;4.40;2.10;;;;;;;17.32;62.82;97856.05;104854;1271;61083;-23
2022/09/17 10:18:49;;;;;;;3.00;1.90;;;;;;;17.41;61.46;97862.23;104941;1271;61271;-24
2022/09/17 10:21:33;;;;;;;2.90;1.60;;;;;;;17.51;62.40;97862.13;104980;1271;74598;-24
2022/09/17 10:24:01;;;;;;;3.90;1.60;;;;;;;17.68;61.27;97861.15;104799;1271;74980;-23
2022/09/17 10:26:31;;;;;;;2.00;1.40;;;;;;;17.68;60.44;97860.58;104780;1271;74281;-24
2022/09/17 10:29:00;;;;;;;2.10;1.40;;;;;;;17.56;59.28;97849.91;104878;1271;61831;-24
2022/09/17 10:31:49;;;;;;;2.40;1.80;;;;;;;17.50;60.28;97850.58;104954;1271;61880;-23
2022/09/17 10:34:27;;;;;;;4.40;1.50;;;;;;;17.52;61.34;97855.65;104900;1271;75418;-23
2022/09/17 10:36:55;;;;;;;1.80;1.40;;;;;;;17.46;60.98;97861.30;104793;1271;75926;-24
2022/09/17 10:39:25;;;;;;;1.50;1.40;;;;;;;17.45;60.39;97861.14;104975;1270;73417;-24
2022/09/17 10:41:57;;;;;;;1.90;1.50;;;;;;;17.37;59.95;97856.58;104811;1271;61975;-23
2022/09/17 10:44:26;;;;;;;2.10;1.40;;;;;;;17.28;59.83;97849.83;104950;1271;62486;-23
2022/09/17 10:46:54;;;;;;;2.30;1.40;;;;;;;17.25;60.40;97848.61;104888;1271;75407;-23
2022/09/17 10:49:41;;;;;;;2.70;1.30;;;;;;;17.20;59.58;97856.33;105073;1271;76011;-23
2022/09/17 10:52:33;;;;;;;2.50;1.40;;;;;;;17.18;59.57;97857.66;104994;1271;74321;-24
2022/09/17 10:55:07;;;;;;;3.40;1.70;;;;;;;17.11;59.37;97846.55;104865;1271;61146;-24
2022/09/17 10:57:43;;;;;;;2.60;1.60;;;;;;;17.12;59.31;97849.06;105119;1270;61889;-23
2022/09/17 11:00:14;;;;;;;3.60;1.40;;;;;;;17.17;59.25;97848.14;105452;1271;75207;-24
2022/09/17 11:03:05;;;;;;;2.10;1.70;;;;;;;17.23;60.29;97847.19;105007;1269;74932;-23
2022/09/17 11:06:10;;;;;;;1.80;1.60;;;;;;;17.39;59.29;97851.23;104887;1271;72961;-24
2022/09/17 11:08:57;;;;;;;3.90;2.60;;;;;;;17.46;60.52;97850.36;105314;1270;62348;-24
2022/09/17 11:11:57;;;;;;;15.50;3.10;;;;;;;17.37;60.88;97850.23;105185;1271;61117;-23
2022/09/17 11:14:40;;;;;;;3.10;1.80;;;;;;;17.26;60.53;97851.01;104942;1271;75458;-23
2022/09/17 11:17:25;;;;;;;23.70;13.20;;;;;;;17.14;60.80;97850.64;104892;1271;75386;-23
2022/09/17 11:19:55;;;;;;;4.30;2.20;;;;;;;17.01;60.07;97844.16;104984;1271;75901;-23
2022/09/17 11:22:26;;;;;;;4.50;2.00;;;;;;;16.94;60.15;97850.95;104830;1271;61127;-23
2022/09/17 11:25:20;;;;;;;2.00;1.40;;;;;;;16.90;59.99;97851.35;104876;1271;61128;-23
2022/09/17 11:28:08;;;;;;;2.80;1.10;;;;;;;16.79;59.02;97855.23;104864;1271;75345;-25
2022/09/17 11:30:55;;;;;;;1.90;1.50;;;;;;;16.73;58.92;97851.36;105077;1271;75821;-25
2022/09/17 11:33:41;;;;;;;1.90;1.50;;;;;;;16.72;57.81;97851.13;104909;1271;74293;-25
2022/09/17 11:36:12;;;;;;;1.10;1.00;;;;;;;16.76;57.92;97849.52;104907;1271;61133;-23
2022/09/17 11:38:46;;;;;;;1.50;1.10;;;;;;;16.81;58.02;97841.94;104956;1271;62100;-23
2022/09/17 11:41:15;;;;;;;3.30;2.40;;;;;;;16.80;58.32;97842.13;104922;1271;74640;-23
2022/09/17 11:43:46;;;;;;;1.50;1.40;;;;;;;16.86;59.06;97835.00;104948;1271;76211;-24
2022/09/17 11:46:19;;;;;;;2.10;1.20;;;;;;;16.99;58.66;97827.16;104966;1271;74419;-25
2022/09/17 11:48:50;;;;;;;2.60;1.50;;;;;;;17.17;58.15;97834.03;105065;1270;61995;-25